sensor_id;sensor_type;location;lat;lon;timestamp;pressure;altitude;pressure_sealevel;temperature;humidity
74868;BME280;63419;42.262;12.210;2022-11-20T00:02:24;96391.44;;;16.41;100.00
74868;BME280;63419;42.262;12.210;2022-11-20T00:05:11;96395.34;;;16.69;100.00
74868;BME280;63419;42.262;12.210;2022-11-20T00:07:39;96392.75;;;16.53;100.00
74868;BME280;63419;42.262;12.210;2022-11-20T00:10:08;96399.19;;;15.99;100.00
74868;BME280;63419;42.262;12.210;2022-11-20T00:12:40;96415.16;;;15.36;100.00
74868;BME280;63419;42.262;12.210;2022-11-20T00:15:12;96409.44;;;15.67;100.00
74868;BME280;63419;42.262;12.210;2022-11-20T00:17:40;96406.69;;;16.27;100.00
74868;BME280;63419;42.262;12.210;2022-11-20T00:20:08;96409.41;;;15.85;100.00
74868;BME280;63419;42.262;12.210;2022-11-20T00:22:38;96410.31;;;15.41;100.00
74868;BME280;63419;42.262;12.210;2022-11-20T00:25:09;96413.75;;;15.76;100.00
74868;BME280;63419;42.262;12.210;2022-11-20T00:27:43;96410.22;;;15.93;100.00
74868;BME280;63419;42.262;12.210;2022-11-20T00:30:15;96416.66;;;15.38;100.00
74868;BME280;63419;42.262;12.210;2022-11-20T00:32:47;96414.34;;;15.70;100.00
74868;BME280;63419;42.262;12.210;2022-11-20T00:35:15;96429.53;;;15.22;100.00
74868;BME280;63419;42.262;12.210;2022-11-20T00:37:43;96426.84;;;15.32;100.00
74868;BME280;63419;42.262;12.210;2022-11-20T00:40:14;96420.19;;;15.64;100.00
74868;BME280;63419;42.262;12.210;2022-11-20T00:42:47;96419.22;;;15.73;100.00
74868;BME280;63419;42.262;12.210;2022-11-20T00:45:18;96423.91;;;15.95;100.00
74868;BME280;63419;42.262;12.210;2022-11-20T00:47:46;96418.00;;;15.85;100.00
74868;BME280;63419;42.262;12.210;2022-11-20T00:50:17;96416.97;;;16.21;100.00
74868;BME280;63419;42.262;12.210;2022-11-20T00:52:47;96428.19;;;16.37;100.00
74868;BME280;63419;42.262;12.210;2022-11-20T00:55:18;96428.78;;;14.59;100.00
74868;BME280;63419;42.262;12.210;2022-11-20T00:57:48;96431.22;;;15.66;100.00
74868;BME280;63419;42.262;12.210;2022-11-20T01:00:17;96435.63;;;15.65;100.00
74868;BME280;63419;42.262;12.210;2022-11-20T01:02:48;96438.06;;;16.09;100.00
74868;BME280;63419;42.262;12.210;2022-11-20T01:05:19;96438.19;;;15.91;100.00
74868;BME280;63419;42.262;12.210;2022-11-20T01:07:47;96444.88;;;15.33;100.00
74868;BME280;63419;42.262;12.210;2022-11-20T01:10:15;96445.81;;;15.58;100.00
74868;BME280;63419;42.262;12.210;2022-11-20T01:12:48;96445.09;;;16.17;100.00
74868;BME280;63419;42.262;12.210;2022-11-20T01:15:50;96449.78;;;16.05;100.00
74868;BME280;63419;42.262;12.210;2022-11-20T01:18:26;96454.84;;;16.15;100.00
74868;BME280;63419;42.262;12.210;2022-11-20T01:20:55;96456.72;;;14.47;100.00
74868;BME280;63419;42.262;12.210;2022-11-20T01:23:31;96469.75;;;14.20;100.00
74868;BME280;63419;42.262;12.210;2022-11-20T01:26:04;96476.50;;;15.02;100.00
74868;BME280;63419;42.262;12.210;2022-11-20T01:28:41;96470.41;;;15.38;100.00
74868;BME280;63419;42.262;12.210;2022-11-20T01:31:28;96471.84;;;15.67;100.00
74868;BME280;63419;42.262;12.210;2022-11-20T01:34:04;96470.03;;;15.33;100.00
74868;BME280;63419;42.262;12.210;2022-11-20T01:36:37;96479.91;;;14.31;100.00
74868;BME280;63419;42.262;12.210;2022-11-20T01:39:20;96481.22;;;13.89;100.00
74868;BME280;63419;42.262;12.210;2022-11-20T01:41:51;96486.69;;;13.86;100.00
74868;BME280;63419;42.262;12.210;2022-11-20T01:44:58;96498.25;;;12.68;100.00
74868;BME280;63419;42.262;12.210;2022-11-20T01:47:39;96494.47;;;13.49;100.00
74868;BME280;63419;42.262;12.210;2022-11-20T01:50:37;96494.25;;;14.53;100.00
74868;BME280;63419;42.262;12.210;2022-11-20T01:53:12;96486.09;;;14.48;100.00
74868;BME280;63419;42.262;12.210;2022-11-20T01:55:53;96499.28;;;14.09;100.00
74868;BME280;63419;42.262;12.210;2022-11-20T01:58:35;96494.38;;;14.34;100.00
74868;BME280;63419;42.262;12.210;2022-11-20T02:01:05;96490.34;;;14.21;100.00
74868;BME280;63419;42.262;12.210;2022-11-20T02:03:34;96498.72;;;13.40;100.00
74868;BME280;63419;42.262;12.210;2022-11-20T02:06:30;96503.78;;;12.25;100.00
74868;BME280;63419;42.262;12.210;2022-11-20T02:09:04;96511.72;;;12.52;100.00
74868;BME280;63419;42.262;12.210;2022-11-20T02:11:33;96499.69;;;13.39;100.00
74868;BME280;63419;42.262;12.210;2022-11-20T02:14:03;96489.63;;;14.47;100.00
74868;BME280;63419;42.262;12.210;2022-11-20T02:16:36;96487.19;;;14.45;100.00
74868;BME280;63419;42.262;12.210;2022-11-20T02:19:22;96480.00;;;14.12;100.00
74868;BME280;63419;42.262;12.210;2022-11-20T02:22:19;96473.63;;;14.52;100.00
74868;BME280;63419;42.262;12.210;2022-11-20T02:25:02;96477.66;;;14.18;100.00
74868;BME280;63419;42.262;12.210;2022-11-20T02:27:38;96477.69;;;14.36;100.00
74868;BME280;63419;42.262;12.210;2022-11-20T02:30:11;96477.84;;;13.42;100.00
74868;BME280;63419;42.262;12.210;2022-11-20T02:32:44;96466.50;;;14.36;100.00
74868;BME280;63419;42.262;12.210;2022-11-20T02:37:54;96470.06;;;13.89;100.00
74868;BME280;63419;42.262;12.210;2022-11-20T02:40:23;96466.88;;;13.67;100.00
74868;BME280;63419;42.262;12.210;2022-11-20T02:42:57;96459.84;;;13.78;100.00
74868;BME280;63419;42.262;12.210;2022-11-20T02:45:28;96454.47;;;14.53;100.00
74868;BME280;63419;42.262;12.210;2022-11-20T02:47:56;96443.50;;;14.41;100.00
74868;BME280;63419;42.262;12.210;2022-11-20T02:50:29;96437.81;;;14.37;100.00
74868;BME280;63419;42.262;12.210;2022-11-20T02:53:04;96441.88;;;14.40;100.00
74868;BME280;63419;42.262;12.210;2022-11-20T02:55:35;96453.78;;;14.15;100.00
74868;BME280;63419;42.262;12.210;2022-11-20T02:58:07;96458.34;;;12.61;100.00
74868;BME280;63419;42.262;12.210;2022-11-20T03:00:44;96460.84;;;13.10;100.00
74868;BME280;63419;42.262;12.210;2022-11-20T03:03:18;96472.94;;;11.31;100.00
74868;BME280;63419;42.262;12.210;2022-11-20T03:05:50;96490.28;;;10.33;100.00
74868;BME280;63419;42.262;12.210;2022-11-20T03:08:20;96494.47;;;10.99;100.00
74868;BME280;63419;42.262;12.210;2022-11-20T03:10:52;96486.06;;;10.97;100.00
74868;BME280;63419;42.262;12.210;2022-11-20T03:13:25;96487.03;;;11.88;100.00
74868;BME280;63419;42.262;12.210;2022-11-20T03:15:56;96485.16;;;12.41;100.00
74868;BME280;63419;42.262;12.210;2022-11-20T03:18:31;96478.22;;;12.70;100.00
74868;BME280;63419;42.262;12.210;2022-11-20T03:21:02;96471.94;;;12.34;100.00
74868;BME280;63419;42.262;12.210;2022-11-20T03:23:34;96487.88;;;12.39;100.00
74868;BME280;63419;42.262;12.210;2022-11-20T03:26:22;96491.88;;;10.78;100.00
74868;BME280;63419;42.262;12.210;2022-11-20T03:28:55;96485.38;;;11.16;100.00
74868;BME280;63419;42.262;12.210;2022-11-20T03:31:30;96478.94;;;11.93;100.00
74868;BME280;63419;42.262;12.210;2022-11-20T03:34:17;96478.50;;;12.48;100.00
74868;BME280;63419;42.262;12.210;2022-11-20T03:36:50;96465.13;;;12.33;100.00
74868;BME280;63419;42.262;12.210;2022-11-20T03:39:18;96463.22;;;12.93;100.00
74868;BME280;63419;42.262;12.210;2022-11-20T03:41:47;96460.84;;;11.93;100.00
74868;BME280;63419;42.262;12.210;2022-11-20T03:44:21;96477.81;;;9.95;100.00
74868;BME280;63419;42.262;12.210;2022-11-20T03:46:49;96475.38;;;9.70;100.00
74868;BME280;63419;42.262;12.210;2022-11-20T03:49:17;96476.84;;;9.96;100.00
74868;BME280;63419;42.262;12.210;2022-11-20T03:51:46;96469.63;;;9.33;100.00
74868;BME280;63419;42.262;12.210;2022-11-20T03:54:14;96470.22;;;9.37;100.00
74868;BME280;63419;42.262;12.210;2022-11-20T03:56:49;96463.38;;;9.92;100.00
74868;BME280;63419;42.262;12.210;2022-11-20T03:59:20;96451.72;;;9.65;100.00
74868;BME280;63419;42.262;12.210;2022-11-20T04:01:49;96449.28;;;11.04;100.00
74868;BME280;63419;42.262;12.210;2022-11-20T04:04:32;96455.59;;;10.26;100.00
74868;BME280;63419;42.262;12.210;2022-11-20T04:07:02;96458.16;;;9.82;100.00
74868;BME280;63419;42.262;12.210;2022-11-20T04:09:34;96459.97;;;10.03;100.00
74868;BME280;63419;42.262;12.210;2022-11-20T04:12:07;96442.28;;;10.95;100.00
74868;BME280;63419;42.262;12.210;2022-11-20T04:14:42;96446.53;;;10.43;100.00
74868;BME280;63419;42.262;12.210;2022-11-20T04:17:15;96440.28;;;11.30;100.00
74868;BME280;63419;42.262;12.210;2022-11-20T04:19:50;96431.34;;;11.65;100.00
74868;BME280;63419;42.262;12.210;2022-11-20T04:22:18;96432.97;;;12.26;100.00
74868;BME280;63419;42.262;12.210;2022-11-20T04:24:46;96438.94;;;11.97;100.00
74868;BME280;63419;42.262;12.210;2022-11-20T04:27:16;96441.03;;;11.41;100.00
74868;BME280;63419;42.262;12.210;2022-11-20T04:29:55;96449.53;;;11.01;100.00
74868;BME280;63419;42.262;12.210;2022-11-20T04:32:24;96454.41;;;10.41;100.00
74868;BME280;63419;42.262;12.210;2022-11-20T04:35:05;96464.81;;;9.85;100.00
74868;BME280;63419;42.262;12.210;2022-11-20T04:37:33;96453.38;;;10.21;100.00
74868;BME280;63419;42.262;12.210;2022-11-20T04:40:01;96451.88;;;11.35;100.00
74868;BME280;63419;42.262;12.210;2022-11-20T04:42:30;96450.94;;;11.36;100.00
74868;BME280;63419;42.262;12.210;2022-11-20T04:45:01;96447.22;;;11.60;100.00
74868;BME280;63419;42.262;12.210;2022-11-20T04:47:35;96461.25;;;10.20;100.00
74868;BME280;63419;42.262;12.210;2022-11-20T04:50:07;96466.09;;;9.90;100.00
74868;BME280;63419;42.262;12.210;2022-11-20T04:52:35;96465.53;;;9.76;100.00
74868;BME280;63419;42.262;12.210;2022-11-20T04:55:09;96466.59;;;9.50;100.00
74868;BME280;63419;42.262;12.210;2022-11-20T04:57:36;96458.38;;;9.57;100.00
74868;BME280;63419;42.262;12.210;2022-11-20T05:00:08;96450.09;;;9.64;100.00
74868;BME280;63419;42.262;12.210;2022-11-20T05:02:36;96449.47;;;9.72;100.00
74868;BME280;63419;42.262;12.210;2022-11-20T05:05:07;96457.19;;;9.95;100.00
74868;BME280;63419;42.262;12.210;2022-11-20T05:07:36;96457.41;;;11.52;100.00
74868;BME280;63419;42.262;12.210;2022-11-20T05:10:05;96456.59;;;11.92;100.00
74868;BME280;63419;42.262;12.210;2022-11-20T05:12:32;96469.91;;;11.56;100.00
74868;BME280;63419;42.262;12.210;2022-11-20T05:15:08;96473.28;;;12.18;100.00
74868;BME280;63419;42.262;12.210;2022-11-20T05:17:37;96478.78;;;12.64;100.00
74868;BME280;63419;42.262;12.210;2022-11-20T05:20:09;96476.03;;;12.75;100.00
74868;BME280;63419;42.262;12.210;2022-11-20T05:22:40;96491.53;;;12.27;100.00
74868;BME280;63419;42.262;12.210;2022-11-20T05:25:11;96508.63;;;11.47;100.00
74868;BME280;63419;42.262;12.210;2022-11-20T05:27:44;96508.59;;;10.95;100.00
74868;BME280;63419;42.262;12.210;2022-11-20T05:30:13;96508.88;;;11.43;100.00
74868;BME280;63419;42.262;12.210;2022-11-20T05:32:41;96503.44;;;11.98;100.00
74868;BME280;63419;42.262;12.210;2022-11-20T05:35:09;96508.16;;;12.44;100.00
74868;BME280;63419;42.262;12.210;2022-11-20T05:37:47;96515.56;;;12.87;100.00
74868;BME280;63419;42.262;12.210;2022-11-20T05:40:20;96520.19;;;12.04;100.00
74868;BME280;63419;42.262;12.210;2022-11-20T05:42:48;96525.50;;;11.81;100.00
74868;BME280;63419;42.262;12.210;2022-11-20T05:45:16;96530.25;;;11.46;100.00
74868;BME280;63419;42.262;12.210;2022-11-20T05:47:52;96528.81;;;10.57;100.00
74868;BME280;63419;42.262;12.210;2022-11-20T05:50:22;96527.66;;;10.50;100.00
74868;BME280;63419;42.262;12.210;2022-11-20T05:52:50;96524.81;;;11.07;100.00
74868;BME280;63419;42.262;12.210;2022-11-20T05:55:22;96517.81;;;11.60;100.00
74868;BME280;63419;42.262;12.210;2022-11-20T05:57:55;96518.81;;;12.41;100.00
74868;BME280;63419;42.262;12.210;2022-11-20T06:00:23;96515.00;;;12.93;100.00
74868;BME280;63419;42.262;12.210;2022-11-20T06:02:50;96511.28;;;13.45;100.00
74868;BME280;63419;42.262;12.210;2022-11-20T06:05:27;96510.09;;;12.90;100.00
74868;BME280;63419;42.262;12.210;2022-11-20T06:07:55;96510.22;;;12.99;100.00
74868;BME280;63419;42.262;12.210;2022-11-20T06:10:24;96522.59;;;11.65;100.00
74868;BME280;63419;42.262;12.210;2022-11-20T06:12:58;96512.34;;;11.54;100.00
74868;BME280;63419;42.262;12.210;2022-11-20T06:15:29;96512.38;;;11.33;100.00
74868;BME280;63419;42.262;12.210;2022-11-20T06:17:59;96516.72;;;11.53;100.00
74868;BME280;63419;42.262;12.210;2022-11-20T06:20:30;96522.06;;;11.40;100.00
74868;BME280;63419;42.262;12.210;2022-11-20T06:23:06;96522.06;;;10.98;100.00
74868;BME280;63419;42.262;12.210;2022-11-20T06:25:42;96526.78;;;11.35;100.00
74868;BME280;63419;42.262;12.210;2022-11-20T06:28:10;96534.56;;;11.66;100.00
74868;BME280;63419;42.262;12.210;2022-11-20T06:30:46;96539.53;;;11.79;100.00
74868;BME280;63419;42.262;12.210;2022-11-20T06:33:14;96538.88;;;11.87;100.00
74868;BME280;63419;42.262;12.210;2022-11-20T06:35:45;96536.44;;;12.26;100.00
74868;BME280;63419;42.262;12.210;2022-11-20T06:38:12;96541.00;;;12.43;100.00
74868;BME280;63419;42.262;12.210;2022-11-20T06:40:45;96540.81;;;12.35;100.00
74868;BME280;63419;42.262;12.210;2022-11-20T06:43:13;96542.88;;;11.91;100.00
74868;BME280;63419;42.262;12.210;2022-11-20T06:45:46;96538.66;;;12.40;100.00
74868;BME280;63419;42.262;12.210;2022-11-20T06:48:13;96547.97;;;13.11;100.00
74868;BME280;63419;42.262;12.210;2022-11-20T06:50:40;96551.78;;;12.77;100.00
74868;BME280;63419;42.262;12.210;2022-11-20T06:53:08;96546.03;;;12.45;100.00
74868;BME280;63419;42.262;12.210;2022-11-20T06:55:42;96555.28;;;12.47;100.00
74868;BME280;63419;42.262;12.210;2022-11-20T06:58:13;96548.44;;;12.27;100.00
74868;BME280;63419;42.262;12.210;2022-11-20T07:00:43;96557.31;;;12.44;100.00
74868;BME280;63419;42.262;12.210;2022-11-20T07:03:14;96563.34;;;12.13;100.00
74868;BME280;63419;42.262;12.210;2022-11-20T07:05:46;96561.47;;;12.15;100.00
74868;BME280;63419;42.262;12.210;2022-11-20T07:08:17;96559.91;;;12.34;100.00
74868;BME280;63419;42.262;12.210;2022-11-20T07:10:45;96566.13;;;13.01;100.00
74868;BME280;63419;42.262;12.210;2022-11-20T07:13:23;96565.84;;;12.94;100.00
74868;BME280;63419;42.262;12.210;2022-11-20T07:15:59;96573.63;;;12.94;100.00
74868;BME280;63419;42.262;12.210;2022-11-20T07:18:28;96581.66;;;12.91;100.00
74868;BME280;63419;42.262;12.210;2022-11-20T07:21:08;96584.50;;;12.88;100.00
74868;BME280;63419;42.262;12.210;2022-11-20T07:23:42;96580.72;;;12.42;100.00
74868;BME280;63419;42.262;12.210;2022-11-20T07:26:12;96576.81;;;12.57;100.00
74868;BME280;63419;42.262;12.210;2022-11-20T07:28:48;96579.28;;;12.59;100.00
74868;BME280;63419;42.262;12.210;2022-11-20T07:31:26;96587.28;;;12.06;100.00
74868;BME280;63419;42.262;12.210;2022-11-20T07:33:55;96592.34;;;12.57;100.00
74868;BME280;63419;42.262;12.210;2022-11-20T07:36:29;96596.22;;;12.73;100.00
74868;BME280;63419;42.262;12.210;2022-11-20T07:39:02;96597.38;;;12.49;100.00
74868;BME280;63419;42.262;12.210;2022-11-20T07:41:34;96602.66;;;12.38;100.00
74868;BME280;63419;42.262;12.210;2022-11-20T07:44:10;96593.50;;;13.23;100.00
74868;BME280;63419;42.262;12.210;2022-11-20T07:46:44;96593.34;;;12.76;100.00
74868;BME280;63419;42.262;12.210;2022-11-20T07:49:15;96598.16;;;12.40;100.00
74868;BME280;63419;42.262;12.210;2022-11-20T07:51:54;96603.53;;;12.58;100.00
74868;BME280;63419;42.262;12.210;2022-11-20T07:54:32;96598.81;;;13.51;100.00
74868;BME280;63419;42.262;12.210;2022-11-20T07:57:08;96596.44;;;13.87;100.00
74868;BME280;63419;42.262;12.210;2022-11-20T07:59:36;96598.69;;;13.33;100.00
74868;BME280;63419;42.262;12.210;2022-11-20T08:02:04;96601.84;;;13.46;100.00
74868;BME280;63419;42.262;12.210;2022-11-20T08:04:32;96595.88;;;13.93;100.00
74868;BME280;63419;42.262;12.210;2022-11-20T08:07:08;96597.81;;;13.81;100.00
74868;BME280;63419;42.262;12.210;2022-11-20T08:09:44;96592.19;;;13.39;100.00
74868;BME280;63419;42.262;12.210;2022-11-20T08:12:21;96597.84;;;13.71;100.00
74868;BME280;63419;42.262;12.210;2022-11-20T08:15:12;96603.31;;;13.20;100.00
74868;BME280;63419;42.262;12.210;2022-11-20T08:17:49;96598.72;;;13.43;100.00
74868;BME280;63419;42.262;12.210;2022-11-20T08:20:48;96601.69;;;13.67;100.00
74868;BME280;63419;42.262;12.210;2022-11-20T08:23:31;96608.22;;;14.46;100.00
74868;BME280;63419;42.262;12.210;2022-11-20T08:26:03;96597.66;;;14.20;100.00
74868;BME280;63419;42.262;12.210;2022-11-20T08:28:32;96600.75;;;14.71;100.00
74868;BME280;63419;42.262;12.210;2022-11-20T08:31:03;96616.13;;;14.55;100.00
74868;BME280;63419;42.262;12.210;2022-11-20T08:33:37;96614.69;;;14.33;100.00
74868;BME280;63419;42.262;12.210;2022-11-20T08:36:11;96610.78;;;14.84;100.00
74868;BME280;63419;42.262;12.210;2022-11-20T08:39:02;96618.41;;;14.30;100.00
74868;BME280;63419;42.262;12.210;2022-11-20T08:41:39;96618.81;;;13.98;100.00
74868;BME280;63419;42.262;12.210;2022-11-20T08:44:18;96621.75;;;14.78;100.00
74868;BME280;63419;42.262;12.210;2022-11-20T08:46:49;96627.44;;;14.63;100.00
74868;BME280;63419;42.262;12.210;2022-11-20T08:49:18;96627.94;;;15.31;100.00
74868;BME280;63419;42.262;12.210;2022-11-20T08:51:56;96636.38;;;14.41;100.00
74868;BME280;63419;42.262;12.210;2022-11-20T08:54:34;96620.94;;;14.95;100.00
74868;BME280;63419;42.262;12.210;2022-11-20T08:57:12;96624.44;;;15.04;100.00
74868;BME280;63419;42.262;12.210;2022-11-20T08:59:52;96624.38;;;15.14;100.00
74868;BME280;63419;42.262;12.210;2022-11-20T09:02:32;96623.19;;;15.08;100.00
74868;BME280;63419;42.262;12.210;2022-11-20T09:05:04;96621.25;;;15.10;100.00
74868;BME280;63419;42.262;12.210;2022-11-20T09:07:37;96610.13;;;15.00;100.00
74868;BME280;63419;42.262;12.210;2022-11-20T09:10:21;96618.97;;;15.87;100.00
74868;BME280;63419;42.262;12.210;2022-11-20T09:12:52;96632.22;;;15.40;100.00
74868;BME280;63419;42.262;12.210;2022-11-20T09:15:25;96624.94;;;15.61;100.00
74868;BME280;63419;42.262;12.210;2022-11-20T09:18:11;96632.63;;;15.71;100.00
74868;BME280;63419;42.262;12.210;2022-11-20T09:20:41;96636.84;;;15.46;100.00
74868;BME280;63419;42.262;12.210;2022-11-20T09:23:10;96621.06;;;15.66;100.00
74868;BME280;63419;42.262;12.210;2022-11-20T09:25:52;96636.31;;;15.07;100.00
74868;BME280;63419;42.262;12.210;2022-11-20T09:28:33;96627.19;;;15.56;100.00
74868;BME280;63419;42.262;12.210;2022-11-20T09:31:08;96631.78;;;15.09;100.00
74868;BME280;63419;42.262;12.210;2022-11-20T09:33:41;96628.91;;;15.92;100.00
74868;BME280;63419;42.262;12.210;2022-11-20T09:36:13;96634.94;;;15.92;100.00
74868;BME280;63419;42.262;12.210;2022-11-20T09:38:41;96620.59;;;15.70;100.00
74868;BME280;63419;42.262;12.210;2022-11-20T09:42:03;96636.81;;;15.64;100.00
74868;BME280;63419;42.262;12.210;2022-11-20T09:47:43;96644.41;;;15.03;100.00
74868;BME280;63419;42.262;12.210;2022-11-20T09:51:00;96636.72;;;15.92;100.00
74868;BME280;63419;42.262;12.210;2022-11-20T09:56:29;96633.50;;;17.67;100.00
74868;BME280;63419;42.262;12.210;2022-11-20T09:59:05;96639.38;;;17.44;100.00
74868;BME280;63419;42.262;12.210;2022-11-20T10:01:37;96632.50;;;16.25;100.00
74868;BME280;63419;42.262;12.210;2022-11-20T10:04:21;96627.88;;;16.88;100.00
74868;BME280;63419;42.262;12.210;2022-11-20T10:07:04;96633.25;;;16.44;100.00
74868;BME280;63419;42.262;12.210;2022-11-20T10:10:05;96643.53;;;16.45;100.00
74868;BME280;63419;42.262;12.210;2022-11-20T10:30:57;96637.66;;;16.86;100.00
74868;BME280;63419;42.262;12.210;2022-11-20T10:33:38;96632.31;;;17.04;100.00
74868;BME280;63419;42.262;12.210;2022-11-20T10:36:54;96627.22;;;16.86;100.00
74868;BME280;63419;42.262;12.210;2022-11-20T10:48:54;96597.09;;;19.17;100.00
74868;BME280;63419;42.262;12.210;2022-11-20T10:51:40;96597.81;;;17.76;100.00
74868;BME280;63419;42.262;12.210;2022-11-20T11:00:16;96591.72;;;19.33;100.00
74868;BME280;63419;42.262;12.210;2022-11-20T11:02:54;96586.00;;;19.91;100.00
74868;BME280;63419;42.262;12.210;2022-11-20T11:08:43;96587.81;;;19.75;100.00
74868;BME280;63419;42.262;12.210;2022-11-20T11:11:38;96579.66;;;20.60;100.00
74868;BME280;63419;42.262;12.210;2022-11-20T11:14:15;96583.91;;;20.76;100.00
74868;BME280;63419;42.262;12.210;2022-11-20T11:17:21;96592.59;;;20.61;100.00
74868;BME280;63419;42.262;12.210;2022-11-20T11:20:25;96603.28;;;19.16;100.00
74868;BME280;63419;42.262;12.210;2022-11-20T11:22:59;96602.00;;;19.58;100.00
74868;BME280;63419;42.262;12.210;2022-11-20T11:25:36;96598.41;;;21.36;100.00
74868;BME280;63419;42.262;12.210;2022-11-20T11:28:22;96601.38;;;22.04;100.00
74868;BME280;63419;42.262;12.210;2022-11-20T11:30:57;96607.34;;;23.36;100.00
74868;BME280;63419;42.262;12.210;2022-11-20T11:33:38;96605.97;;;22.72;100.00
74868;BME280;63419;42.262;12.210;2022-11-20T11:36:20;96607.06;;;22.43;100.00
74868;BME280;63419;42.262;12.210;2022-11-20T11:38:52;96599.03;;;22.58;100.00
74868;BME280;63419;42.262;12.210;2022-11-20T11:41:30;96597.50;;;22.77;100.00
74868;BME280;63419;42.262;12.210;2022-11-20T11:44:44;96598.66;;;20.32;100.00
74868;BME280;63419;42.262;12.210;2022-11-20T11:50:27;96591.84;;;21.04;100.00
74868;BME280;63419;42.262;12.210;2022-11-20T11:53:20;96587.13;;;20.78;100.00
74868;BME280;63419;42.262;12.210;2022-11-20T11:56:20;96598.94;;;19.31;100.00
74868;BME280;63419;42.262;12.210;2022-11-20T11:58:55;96585.97;;;21.66;100.00
74868;BME280;63419;42.262;12.210;2022-11-20T12:01:42;96596.19;;;20.60;100.00
74868;BME280;63419;42.262;12.210;2022-11-20T12:07:51;96587.31;;;21.84;100.00
74868;BME280;63419;42.262;12.210;2022-11-20T12:10:54;96586.81;;;20.21;100.00
74868;BME280;63419;42.262;12.210;2022-11-20T12:13:54;96575.53;;;23.11;100.00
74868;BME280;63419;42.262;12.210;2022-11-20T12:16:36;96582.31;;;21.89;100.00
74868;BME280;63419;42.262;12.210;2022-11-20T12:19:14;96580.00;;;22.42;100.00
74868;BME280;63419;42.262;12.210;2022-11-20T12:22:18;96571.16;;;21.16;100.00
74868;BME280;63419;42.262;12.210;2022-11-20T12:27:52;96567.16;;;20.25;100.00
74868;BME280;63419;42.262;12.210;2022-11-20T12:30:31;96570.25;;;21.23;100.00
74868;BME280;63419;42.262;12.210;2022-11-20T12:39:39;96577.06;;;20.30;100.00
74868;BME280;63419;42.262;12.210;2022-11-20T12:42:31;96579.44;;;20.10;100.00
74868;BME280;63419;42.262;12.210;2022-11-20T12:45:30;96587.47;;;20.89;100.00
74868;BME280;63419;42.262;12.210;2022-11-20T13:07:32;96591.41;;;18.82;100.00
74868;BME280;63419;42.262;12.210;2022-11-20T13:14:02;96565.47;;;20.39;100.00
74868;BME280;63419;42.262;12.210;2022-11-20T13:20:02;96554.25;;;20.75;100.00
74868;BME280;63419;42.262;12.210;2022-11-20T13:22:48;96558.81;;;19.39;100.00
74868;BME280;63419;42.262;12.210;2022-11-20T13:25:43;96554.50;;;18.77;100.00
74868;BME280;63419;42.262;12.210;2022-11-20T13:30:55;96535.31;;;19.16;100.00
74868;BME280;63419;42.262;12.210;2022-11-20T13:33:37;96531.84;;;19.38;100.00
74868;BME280;63419;42.262;12.210;2022-11-20T13:36:27;96540.16;;;18.73;100.00
74868;BME280;63419;42.262;12.210;2022-11-20T13:39:23;96536.66;;;19.12;100.00
74868;BME280;63419;42.262;12.210;2022-11-20T13:42:01;96536.44;;;20.19;100.00
74868;BME280;63419;42.262;12.210;2022-11-20T13:44:54;96536.84;;;18.56;100.00
74868;BME280;63419;42.262;12.210;2022-11-20T13:47:27;96531.94;;;19.07;100.00
74868;BME280;63419;42.262;12.210;2022-11-20T13:50:03;96542.31;;;19.00;100.00
74868;BME280;63419;42.262;12.210;2022-11-20T13:53:00;96547.25;;;18.95;100.00
74868;BME280;63419;42.262;12.210;2022-11-20T13:56:11;96545.69;;;19.47;100.00
74868;BME280;63419;42.262;12.210;2022-11-20T14:02:00;96542.16;;;20.44;100.00
74868;BME280;63419;42.262;12.210;2022-11-20T14:04:49;96549.47;;;18.75;100.00
74868;BME280;63419;42.262;12.210;2022-11-20T14:07:40;96553.19;;;19.50;100.00
74868;BME280;63419;42.262;12.210;2022-11-20T14:10:28;96553.22;;;19.27;100.00
74868;BME280;63419;42.262;12.210;2022-11-20T14:13:25;96566.69;;;19.92;100.00
74868;BME280;63419;42.262;12.210;2022-11-20T14:16:13;96571.28;;;19.14;100.00
74868;BME280;63419;42.262;12.210;2022-11-20T14:18:52;96575.06;;;18.80;100.00
74868;BME280;63419;42.262;12.210;2022-11-20T14:21:35;96589.28;;;19.09;100.00
74868;BME280;63419;42.262;12.210;2022-11-20T14:24:10;96575.56;;;18.83;100.00
74868;BME280;63419;42.262;12.210;2022-11-20T14:26:44;96570.97;;;18.86;100.00
74868;BME280;63419;42.262;12.210;2022-11-20T14:29:29;96567.41;;;19.10;100.00
74868;BME280;63419;42.262;12.210;2022-11-20T14:32:16;96576.41;;;17.80;100.00
74868;BME280;63419;42.262;12.210;2022-11-20T14:34:49;96576.75;;;17.94;100.00
74868;BME280;63419;42.262;12.210;2022-11-20T14:37:28;96567.75;;;20.42;100.00
74868;BME280;63419;42.262;12.210;2022-11-20T14:40:35;96588.56;;;18.60;100.00
74868;BME280;63419;42.262;12.210;2022-11-20T14:43:25;96584.91;;;19.47;100.00
74868;BME280;63419;42.262;12.210;2022-11-20T14:46:05;96599.13;;;17.88;100.00
74868;BME280;63419;42.262;12.210;2022-11-20T14:48:57;96592.84;;;19.16;100.00
74868;BME280;63419;42.262;12.210;2022-11-20T14:51:42;96591.97;;;18.30;100.00
74868;BME280;63419;42.262;12.210;2022-11-20T14:54:17;96594.81;;;18.51;100.00
74868;BME280;63419;42.262;12.210;2022-11-20T14:56:57;96605.00;;;18.38;100.00
74868;BME280;63419;42.262;12.210;2022-11-20T14:59:29;96605.91;;;18.05;100.00
74868;BME280;63419;42.262;12.210;2022-11-20T15:02:11;96606.69;;;18.14;100.00
74868;BME280;63419;42.262;12.210;2022-11-20T15:04:56;96612.78;;;17.82;100.00